Time;durP1;ratioP1;P1;durP2;ratioP2;P2;SDS_P1;SDS_P2;PMS_P1;PMS_P2;Temp;Humidity;BMP_temperature;BMP_pressure;BME280_temperature;BME280_humidity;BME280_pressure;Samples;Min_cycle;Max_cycle;Signal;HPM_P1;HPM_P2
2022/04/29 00:00:27;;;;;;;;;;;;;;;22.73;66.46;97489.97;575992;246;65293;-70
2022/04/29 00:02:54;;;;;;;;;;;;;;;22.74;67.38;97496.93;575994;246;68666;-70
2022/04/29 00:05:23;;;;;;;;;;;;;;;22.73;66.47;97479.26;575964;246;66991;-70
2022/04/29 00:07:50;;;;;;;;;;;;;;;22.74;66.70;97477.38;575985;246;65685;-70
2022/04/29 00:10:18;;;;;;;;;;;;;;;22.73;66.89;97484.62;576020;246;69019;-70
2022/04/29 00:12:50;;;;;;;;;;;;;;;22.73;67.16;97483.81;575975;246;68555;-70
2022/04/29 00:15:16;;;;;;;;;;;;;;;22.73;66.55;97481.94;575874;246;65204;-70
2022/04/29 00:17:44;;;;;;;;;;;;;;;22.71;66.86;97473.36;576004;246;68909;-70
2022/04/29 00:20:12;;;;;;;;;;;;;;;22.71;67.71;97476.03;575975;246;69417;-70
2022/04/29 00:22:39;;;;;;;;;;;;;;;22.71;68.29;97476.03;576024;246;65336;-70
2022/04/29 00:25:07;;;;;;;;;;;;;;;22.71;67.43;97473.36;576011;246;68574;-70
2022/04/29 00:27:35;;;;;;;;;;;;;;;22.71;66.78;97475.24;575973;246;68753;-70
2022/04/29 00:30:05;;;;;;;;;;;;;;;22.71;68.21;97469.88;575970;246;63961;-70
2022/04/29 00:32:32;;;;;;;;;;;;;;;22.70;67.80;97471.77;576165;244;69113;-70
2022/04/29 00:35:00;;;;;;;;;;;;;;;22.71;66.82;97469.88;580224;244;68711;-70
2022/04/29 00:37:27;;;;;;;;;;;;;;;22.69;69.04;97472.02;580202;244;66249;-70
2022/04/29 00:39:55;;;;;;;;;;;;;;;22.69;68.25;97478.17;580195;244;66431;-71
2022/04/29 00:42:24;;;;;;;;;;;;;;;22.70;68.82;97477.13;580197;244;69086;-65
2022/04/29 00:44:52;;;;;;;;;;;;;;;22.68;68.93;97471.22;580138;244;64109;-66
2022/04/29 00:47:21;;;;;;;;;;;;;;;22.69;66.97;97478.17;580256;244;66413;-65
2022/04/29 00:49:49;;;;;;;;;;;;;;;22.70;67.17;97478.97;580174;244;68725;-66
2022/04/29 00:52:18;;;;;;;;;;;;;;;22.69;67.55;97472.02;580188;244;63141;-66
2022/04/29 00:54:49;;;;;;;;;;;;;;;22.70;67.82;97482.48;580206;244;50309;-66
2022/04/29 00:57:19;;;;;;;;;;;;;;;22.69;67.42;97480.06;580006;244;68670;-66
2022/04/29 00:59:54;;;;;;;;;;;;;;;22.69;69.26;97478.17;580104;244;65106;-66
2022/04/29 01:02:22;;;;;;;;;;;;;;;22.69;68.01;97478.17;580229;244;66685;-67
2022/04/29 01:04:52;;;;;;;;;;;;;;;22.67;67.71;97474.98;580172;244;66476;-67
2022/04/29 01:07:19;;;;;;;;;;;;;;;22.69;67.97;97483.53;580108;244;65397;-66
2022/04/29 01:09:47;;;;;;;;;;;;;;;22.69;68.48;97478.17;580195;244;66818;-67
2022/04/29 01:12:14;;;;;;;;;;;;;;;22.68;69.45;97483.82;580221;244;68479;-67
2022/04/29 01:14:44;;;;;;;;;;;;;;;22.66;68.13;97478.72;580184;244;63877;-67
2022/04/29 01:17:12;;;;;;;;;;;;;;;22.67;67.85;97480.34;580176;244;69340;-67
2022/04/29 01:19:40;;;;;;;;;;;;;;;22.67;67.41;97474.98;580140;244;69118;-67
2022/04/29 01:22:08;;;;;;;;;;;;;;;22.68;69.14;97483.82;580190;244;65604;-66
2022/04/29 01:24:36;;;;;;;;;;;;;;;22.67;69.61;97469.63;580192;244;68859;-71
2022/04/29 01:27:05;;;;;;;;;;;;;;;22.65;68.37;97474.45;580163;244;68625;-71
2022/04/29 01:29:34;;;;;;;;;;;;;;;22.65;67.96;97471.77;580064;244;45433;-72
2022/04/29 01:32:02;;;;;;;;;;;;;;;22.66;68.29;97470.69;580124;244;68893;-71
2022/04/29 01:34:29;;;;;;;;;;;;;;;22.66;68.78;97467.20;580145;244;66650;-71
2022/04/29 01:36:58;;;;;;;;;;;;;;;22.65;68.31;97471.77;580203;244;66036;-71
2022/04/29 01:39:25;;;;;;;;;;;;;;;22.65;68.34;97466.41;580249;244;68738;-71
2022/04/29 01:41:53;;;;;;;;;;;;;;;22.65;67.87;97470.97;580136;244;68631;-71
2022/04/29 01:44:21;;;;;;;;;;;;;;;22.65;68.26;97466.41;579968;244;65361;-71
2022/04/29 01:46:49;;;;;;;;;;;;;;;22.65;67.87;97477.13;580149;244;68983;-71
2022/04/29 01:49:30;;;;;;;;;;;;;;;22.66;69.14;97475.25;579667;244;48524;-71
2022/04/29 01:52:00;;;;;;;;;;;;;;;22.64;68.20;97467.47;580168;244;43347;-66
2022/04/29 01:54:27;;;;;;;;;;;;;;;22.63;68.55;97471.23;580176;244;68679;-66
2022/04/29 01:56:55;;;;;;;;;;;;;;;22.65;68.98;97465.61;580170;244;66012;-66
2022/04/29 01:59:22;;;;;;;;;;;;;;;22.64;68.75;97469.34;580183;244;63366;-66
2022/04/29 02:02:07;;;;;;;;;;;;;;;22.64;69.38;97464.78;580184;244;46006;-67
2022/04/29 02:04:36;;;;;;;;;;;;;;;22.63;68.49;97460.52;580138;244;69119;-67
2022/04/29 02:07:05;;;;;;;;;;;;;;;22.63;69.51;97465.88;580192;244;63234;-65
2022/04/29 02:09:34;;;;;;;;;;;;;;;22.62;69.32;97461.59;580066;244;46012;-65
2022/04/29 02:12:04;;;;;;;;;;;;;;;22.63;69.00;97465.88;580167;244;66365;-65
2022/04/29 02:14:50;;;;;;;;;;;;;;;22.61;68.15;97459.97;580281;244;39119;-67
2022/04/29 02:17:19;;;;;;;;;;;;;;;22.61;68.18;97465.33;580131;244;50490;-67
2022/04/29 02:19:47;;;;;;;;;;;;;;;22.62;67.96;97466.95;580185;244;69013;-67
2022/04/29 02:22:15;;;;;;;;;;;;;;;22.61;68.51;97471.48;580215;244;65314;-67
2022/04/29 02:24:44;;;;;;;;;;;;;;;22.61;69.55;97470.69;580184;244;69418;-67
2022/04/29 02:27:13;;;;;;;;;;;;;;;22.60;69.22;97475.25;580192;244;44646;-67
2022/04/29 02:29:40;;;;;;;;;;;;;;;22.60;69.33;97479.81;580163;244;65516;-67
2022/04/29 02:32:17;;;;;;;;;;;;;;;22.60;67.53;97475.25;580173;244;66100;-67
2022/04/29 02:34:45;;;;;;;;;;;;;;;22.60;68.43;97479.81;580123;244;67771;-66
2022/04/29 02:37:13;;;;;;;;;;;;;;;22.60;69.12;97483.28;580202;244;65921;-67
2022/04/29 02:39:43;;;;;;;;;;;;;;;22.60;68.48;97477.13;580176;244;47221;-66
2022/04/29 02:42:10;;;;;;;;;;;;;;;22.60;68.09;97474.45;580134;244;68652;-67
2022/04/29 02:44:39;;;;;;;;;;;;;;;22.59;68.41;97478.22;580134;244;65400;-67
2022/04/29 02:47:08;;;;;;;;;;;;;;;22.60;68.53;97477.13;580176;244;67457;-67
2022/04/29 02:49:37;;;;;;;;;;;;;;;22.59;68.38;97478.22;580224;244;68657;-66
2022/04/29 02:52:06;;;;;;;;;;;;;;;22.59;68.44;97480.89;580195;244;63004;-67
2022/04/29 02:54:33;;;;;;;;;;;;;;;22.59;69.17;97483.57;580142;244;68598;-67
2022/04/29 02:57:02;;;;;;;;;;;;;;;22.58;67.81;97482.75;580148;244;69088;-67
2022/04/29 02:59:34;;;;;;;;;;;;;;;22.58;68.60;97477.39;580093;244;42276;-67
2022/04/29 03:02:01;;;;;;;;;;;;;;;22.59;69.19;97486.25;580191;244;69171;-67
2022/04/29 03:04:29;;;;;;;;;;;;;;;22.58;67.91;97488.10;580192;244;68760;-66
2022/04/29 03:06:57;;;;;;;;;;;;;;;22.57;68.92;97481.15;580151;244;65351;-67
2022/04/29 03:09:25;;;;;;;;;;;;;;;22.57;68.52;97483.03;580166;244;68962;-66
2022/04/29 03:11:53;;;;;;;;;;;;;;;22.57;68.05;97491.06;580136;244;66096;-66
2022/04/29 03:14:21;;;;;;;;;;;;;;;22.57;68.63;97491.86;580210;244;65294;-66
2022/04/29 03:16:48;;;;;;;;;;;;;;;22.57;68.67;97491.86;580273;244;68607;-66
2022/04/29 03:19:17;;;;;;;;;;;;;;;22.57;68.31;97499.10;580177;244;66151;-73
2022/04/29 03:21:45;;;;;;;;;;;;;;;22.57;68.29;97499.90;580186;244;65301;-67
2022/04/29 03:24:12;;;;;;;;;;;;;;;22.57;68.85;97499.10;580175;244;67091;-66
2022/04/29 03:26:40;;;;;;;;;;;;;;;22.58;68.80;97496.14;580230;244;68715;-66
2022/04/29 03:29:08;;;;;;;;;;;;;;;22.56;68.65;97498.30;580260;244;62786;-67
2022/04/29 03:31:35;;;;;;;;;;;;;;;22.57;67.70;97491.06;580225;244;66422;-67
2022/04/29 03:34:08;;;;;;;;;;;;;;;22.56;68.05;97498.30;573344;246;48224;-66
2022/04/29 03:36:36;;;;;;;;;;;;;;;22.56;68.78;97495.63;576017;246;66043;-66
2022/04/29 03:39:04;;;;;;;;;;;;;;;22.55;67.96;97493.20;575990;246;65931;-67
2022/04/29 03:41:34;;;;;;;;;;;;;;;22.55;67.71;97493.20;575650;246;68396;-67
2022/04/29 03:44:04;;;;;;;;;;;;;;;22.55;68.31;97495.88;576039;246;42412;-67
2022/04/29 03:46:33;;;;;;;;;;;;;;;22.55;68.62;97498.56;575631;246;46378;-67
2022/04/29 03:51:50;;;;;;;;;;;;;;;22.55;67.74;97503.92;576017;246;45263;-67
2022/04/29 03:54:18;;;;;;;;;;;;;;;22.55;68.02;97503.92;576004;246;69263;-67
2022/04/29 03:56:56;;;;;;;;;;;;;;;22.54;68.78;97496.97;575977;246;47283;-67
2022/04/29 03:59:24;;;;;;;;;;;;;;;22.52;68.32;97499.90;576039;246;65382;-67
2022/04/29 04:01:52;;;;;;;;;;;;;;;22.53;67.93;97508.73;576003;246;68660;-67
2022/04/29 04:04:20;;;;;;;;;;;;;;;22.53;68.14;97503.38;575976;246;69430;-67
2022/04/29 04:06:52;;;;;;;;;;;;;;;22.53;67.91;97500.70;575826;246;66337;-66
2022/04/29 04:09:23;;;;;;;;;;;;;;;22.53;68.73;97503.38;575920;246;45298;-65
2022/04/29 04:11:52;;;;;;;;;;;;;;;22.52;67.64;97496.42;576026;246;68674;-66
2022/04/29 04:14:38;;;;;;;;;;;;;;;22.52;68.21;97496.42;576137;246;39455;-67
2022/04/29 04:17:05;;;;;;;;;;;;;;;22.53;68.07;97495.34;576002;246;68950;-67
2022/04/29 04:19:33;;;;;;;;;;;;;;;22.52;68.04;97499.10;575977;245;68959;-66
2022/04/29 04:22:00;;;;;;;;;;;;;;;22.52;67.87;97497.22;575962;246;65412;-67
2022/04/29 04:24:29;;;;;;;;;;;;;;;22.52;68.41;97501.78;575989;246;68776;-67
2022/04/29 04:26:57;;;;;;;;;;;;;;;22.51;68.52;97509.02;576007;246;68701;-67
2022/04/29 04:29:25;;;;;;;;;;;;;;;22.51;68.28;97511.70;575999;246;65370;-66
2022/04/29 04:31:53;;;;;;;;;;;;;;;22.51;68.47;97521.61;575992;246;66491;-67
2022/04/29 04:37:07;;;;;;;;;;;;;;;22.51;68.82;97518.94;580187;244;65563;-67
2022/04/29 04:39:35;;;;;;;;;;;;;;;22.51;68.78;97524.29;580157;244;69208;-67
2022/04/29 04:42:07;;;;;;;;;;;;;;;22.50;68.67;97528.82;580239;244;47320;-67
2022/04/29 04:44:37;;;;;;;;;;;;;;;22.50;68.71;97525.34;579875;244;44888;-66
2022/04/29 04:47:09;;;;;;;;;;;;;;;22.50;68.96;97526.14;580178;244;66584;-67
2022/04/29 04:49:45;;;;;;;;;;;;;;;22.49;68.93;97534.46;575870;244;49782;-67
2022/04/29 04:52:14;;;;;;;;;;;;;;;22.48;68.97;97533.66;580040;244;42220;-67
2022/04/29 04:54:42;;;;;;;;;;;;;;;22.49;68.83;97537.14;580159;244;66271;-67
2022/04/29 04:57:10;;;;;;;;;;;;;;;22.49;69.17;97532.58;580185;244;69603;-65
2022/04/29 04:59:38;;;;;;;;;;;;;;;22.48;69.01;97539.02;573181;244;64349;-64
2022/04/29 05:02:06;;;;;;;;;;;;;;;22.48;69.62;97538.19;579995;244;69397;-65
2022/04/29 05:04:51;;;;;;;;;;;;;;;22.48;68.99;97539.02;580233;244;39703;-67
2022/04/29 05:07:21;;;;;;;;;;;;;;;22.48;68.64;97538.19;579262;244;46558;-67
2022/04/29 05:09:48;;;;;;;;;;;;;;;22.48;70.43;97540.87;580199;244;69495;-67
2022/04/29 05:12:16;;;;;;;;;;;;;;;22.47;68.69;97539.27;580102;244;69441;-71
2022/04/29 05:15:02;;;;;;;;;;;;;;;22.47;68.68;97540.07;580284;244;39174;-71
2022/04/29 05:17:30;;;;;;;;;;;;;;;22.47;69.18;97541.95;580151;244;68839;-70
2022/04/29 05:20:06;;;;;;;;;;;;;;;22.46;69.27;97540.36;579333;244;47430;-71
2022/04/29 05:22:35;;;;;;;;;;;;;;;22.46;69.04;97543.03;580248;244;46556;-70
2022/04/29 05:25:03;;;;;;;;;;;;;;;22.46;69.01;97543.83;580209;244;66343;-66
2022/04/29 05:27:49;;;;;;;;;;;;;;;22.46;69.08;97537.68;580323;244;39412;-66
2022/04/29 05:30:35;;;;;;;;;;;;;;;22.46;69.43;97543.83;580248;244;40475;-66
2022/04/29 05:33:16;;;;;;;;;;;;;;;22.45;68.17;97546.77;578698;244;52218;-66
2022/04/29 05:36:02;;;;;;;;;;;;;;;22.45;68.99;97542.20;576053;246;43300;-66
2022/04/29 05:44:20;;;;;;;;;;;;;;;22.43;68.86;97543.58;575819;246;68644;-65
2022/04/29 05:46:49;;;;;;;;;;;;;;;22.43;69.46;97539.02;575922;246;65872;-65
2022/04/29 05:49:17;;;;;;;;;;;;;;;22.43;69.23;97543.58;576041;246;68810;-66
2022/04/29 05:51:50;;;;;;;;;;;;;;;22.42;69.34;97541.95;575939;246;46582;-68
2022/04/29 05:54:19;;;;;;;;;;;;;;;22.43;70.00;97538.22;574898;245;46326;-71
2022/04/29 05:56:47;;;;;;;;;;;;;;;22.41;69.11;97535.80;577833;243;69469;-68
2022/04/29 05:59:15;;;;;;;;;;;;;;;22.42;70.55;97539.27;582415;243;66154;-68
2022/04/29 06:02:00;;;;;;;;;;;;;;;22.41;70.27;97545.70;582270;243;47122;-71
2022/04/29 06:04:29;;;;;;;;;;;;;;;22.40;69.41;97536.88;582141;243;47347;-69
2022/04/29 06:06:57;;;;;;;;;;;;;;;22.42;71.11;97541.95;582412;243;69102;-64
2022/04/29 06:09:25;;;;;;;;;;;;;;;22.39;68.76;97537.92;582367;243;63021;-69
2022/04/29 06:11:53;;;;;;;;;;;;;;;22.38;67.05;97545.16;582369;243;69098;-68
2022/04/29 06:14:22;;;;;;;;;;;;;;;22.38;67.96;97534.45;582186;243;45597;-68
2022/04/29 06:16:51;;;;;;;;;;;;;;;22.35;66.13;97547.58;581644;243;44782;-67
2022/04/29 06:19:37;;;;;;;;;;;;;;;22.35;67.31;97542.22;582541;243;42367;-70
2022/04/29 06:22:07;;;;;;;;;;;;;;;22.36;67.21;97546.50;581636;243;46275;-68
2022/04/29 06:24:37;;;;;;;;;;;;;;;22.37;66.83;97534.70;582261;243;42907;-68
2022/04/29 06:27:05;;;;;;;;;;;;;;;22.38;67.25;97545.16;582405;243;66464;-67
2022/04/29 06:29:32;;;;;;;;;;;;;;;22.38;66.96;97541.69;582343;243;68598;-67
2022/04/29 06:32:00;;;;;;;;;;;;;;;22.41;67.74;97551.06;582449;243;65336;-69
2022/04/29 06:34:29;;;;;;;;;;;;;;;22.42;67.97;97541.95;577813;241;48364;-68
2022/04/29 06:36:57;;;;;;;;;;;;;;;22.43;68.50;97551.61;586658;241;68572;-69
2022/04/29 06:39:25;;;;;;;;;;;;;;;22.43;67.52;97554.28;586653;241;65178;-67
2022/04/29 06:42:00;;;;;;;;;;;;;;;22.45;68.18;97560.95;585783;241;45602;-69
2022/04/29 06:44:41;;;;;;;;;;;;;;;22.45;67.96;97562.83;585492;241;48481;-66
2022/04/29 06:47:27;;;;;;;;;;;;;;;22.48;68.04;97564.97;586816;241;39509;-67
2022/04/29 06:50:12;;;;;;;;;;;;;;;22.50;67.10;97568.20;586320;241;40670;-68
2022/04/29 06:52:45;;;;;;;;;;;;;;;22.52;67.04;97568.73;579388;244;50956;-71
2022/04/29 06:55:17;;;;;;;;;;;;;;;22.53;65.72;97564.98;580332;244;45084;-71
2022/04/29 06:57:46;;;;;;;;;;;;;;;22.54;66.98;97561.25;580380;244;66474;-69
2022/04/29 07:00:15;;;;;;;;;;;;;;;22.52;67.50;97566.06;580393;244;68100;-69
2022/04/29 07:02:43;;;;;;;;;;;;;;;22.52;67.82;97566.86;580404;244;65274;-69
2022/04/29 07:05:11;;;;;;;;;;;;;;;22.54;66.76;97566.61;580431;244;68912;-73
2022/04/29 07:07:39;;;;;;;;;;;;;;;22.54;66.20;97566.61;580417;244;68667;-71
2022/04/29 07:10:11;;;;;;;;;;;;;;;22.54;67.29;97567.41;579460;244;44048;-71
2022/04/29 07:12:57;;;;;;;;;;;;;;;22.54;67.53;97561.25;580393;244;42367;-70
2022/04/29 07:15:24;;;;;;;;;;;;;;;22.54;68.20;97567.41;580443;244;66460;-70
2022/04/29 07:17:53;;;;;;;;;;;;;;;22.55;68.33;97563.64;580490;244;42289;-71
2022/04/29 07:20:21;;;;;;;;;;;;;;;22.56;68.85;97559.08;580420;244;66655;-71
2022/04/29 07:22:49;;;;;;;;;;;;;;;22.56;68.41;97561.77;580409;244;66487;-69
2022/04/29 07:25:19;;;;;;;;;;;;;;;22.56;68.99;97559.08;580413;244;63975;-71
2022/04/29 07:27:48;;;;;;;;;;;;;;;22.56;68.44;97565.27;580371;244;69537;-70
2022/04/29 07:30:16;;;;;;;;;;;;;;;22.57;67.94;97560.71;580408;244;68282;-68
2022/04/29 07:32:46;;;;;;;;;;;;;;;22.57;67.97;97558.03;578784;244;45327;-69
2022/04/29 07:43:54;;;;;;;;;;;;;;;22.59;68.55;97566.61;576235;246;68962;-69
2022/04/29 07:46:24;;;;;;;;;;;;;;;22.59;68.89;97569.30;576187;246;68502;-69
2022/04/29 07:48:57;;;;;;;;;;;;;;;22.58;67.78;97579.17;575425;246;46536;-70
2022/04/29 07:51:25;;;;;;;;;;;;;;;22.59;68.80;97577.33;576305;246;69061;-70
2022/04/29 07:53:52;;;;;;;;;;;;;;;22.60;68.61;97581.60;576145;246;68671;-70
2022/04/29 07:56:20;;;;;;;;;;;;;;;22.59;67.97;97578.13;576236;246;63173;-70
2022/04/29 07:58:49;;;;;;;;;;;;;;;22.60;68.06;97581.60;576194;246;66279;-71
2022/04/29 08:01:16;;;;;;;;;;;;;;;22.59;68.53;97570.09;576171;246;68741;-71
2022/04/29 08:03:47;;;;;;;;;;;;;;;22.59;68.69;97580.80;576191;246;65880;-70
2022/04/29 08:06:16;;;;;;;;;;;;;;;22.60;68.01;97577.05;576205;246;46841;-70
2022/04/29 08:08:44;;;;;;;;;;;;;;;22.61;68.07;97583.20;576211;246;68569;-70
2022/04/29 08:11:12;;;;;;;;;;;;;;;22.61;67.86;97580.52;576234;246;65649;-68
2022/04/29 08:13:44;;;;;;;;;;;;;;;22.61;68.67;97578.64;575886;246;47439;-70
2022/04/29 08:16:17;;;;;;;;;;;;;;;22.63;68.46;97581.06;572344;246;49997;-70
2022/04/29 08:18:46;;;;;;;;;;;;;;;22.63;68.29;97580.27;575545;246;46512;-70
2022/04/29 08:21:16;;;;;;;;;;;;;;;22.63;68.51;97570.34;576313;246;46002;-69
2022/04/29 08:23:45;;;;;;;;;;;;;;;22.64;68.52;97577.30;576213;246;43623;-70
2022/04/29 08:26:12;;;;;;;;;;;;;;;22.64;68.26;97571.95;576253;246;65974;-69
2022/04/29 08:28:42;;;;;;;;;;;;;;;22.65;68.33;97570.89;576172;246;66542;-69
2022/04/29 08:31:09;;;;;;;;;;;;;;;22.66;68.24;97574.37;576200;246;66502;-71
2022/04/29 08:33:41;;;;;;;;;;;;;;;22.64;67.84;97566.59;577963;244;44314;-72
2022/04/29 08:36:12;;;;;;;;;;;;;;;22.65;67.51;97573.57;580175;244;47617;-72
2022/04/29 08:38:40;;;;;;;;;;;;;;;22.65;68.04;97572.77;580234;244;66766;-72
2022/04/29 08:41:10;;;;;;;;;;;;;;;22.64;66.99;97576.50;580245;244;62717;-70
2022/04/29 08:43:39;;;;;;;;;;;;;;;22.64;67.40;97574.63;580257;244;68868;-70
2022/04/29 08:46:09;;;;;;;;;;;;;;;22.63;63.81;97581.06;580160;244;70438;-73
2022/04/29 08:48:41;;;;;;;;;;;;;;;22.66;65.35;97580.52;575210;244;46559;-68
2022/04/29 08:51:09;;;;;;;;;;;;;;;22.66;65.59;97575.17;580219;244;68915;-68
2022/04/29 08:53:38;;;;;;;;;;;;;;;22.67;65.38;97573.28;580164;244;69265;-68
2022/04/29 08:58:52;;;;;;;;;;;;;;;22.67;64.79;97576.80;580280;244;68976;-68
2022/04/29 09:01:21;;;;;;;;;;;;;;;22.67;65.44;97576.80;580262;244;68433;-68
2022/04/29 09:03:48;;;;;;;;;;;;;;;22.68;65.35;97575.71;580235;244;63129;-68
2022/04/29 09:06:17;;;;;;;;;;;;;;;22.66;65.67;97569.81;580144;244;68800;-69
2022/04/29 09:08:46;;;;;;;;;;;;;;;22.66;64.57;97569.81;580213;244;69484;-68
2022/04/29 09:11:23;;;;;;;;;;;;;;;22.68;65.09;97562.31;580334;244;46420;-69
2022/04/29 09:13:50;;;;;;;;;;;;;;;22.68;64.98;97562.31;580181;244;68595;-68
2022/04/29 09:16:18;;;;;;;;;;;;;;;22.68;65.05;97558.84;580206;244;68823;-68
2022/04/29 09:18:50;;;;;;;;;;;;;;;22.69;65.20;97557.75;580198;244;63074;-68
2022/04/29 09:21:21;;;;;;;;;;;;;;;22.69;65.78;97561.23;580171;244;68893;-69
2022/04/29 09:23:57;;;;;;;;;;;;;;;22.69;64.84;97561.23;580084;244;66443;-68
2022/04/29 09:26:39;;;;;;;;;;;;;;;22.70;65.09;97554.82;580269;244;40283;-69
2022/04/29 09:29:19;;;;;;;;;;;;;;;22.71;64.89;97552.94;577364;244;50918;-69
2022/04/29 09:31:53;;;;;;;;;;;;;;;22.71;65.22;97556.41;580141;244;46023;-70
2022/04/29 09:34:25;;;;;;;;;;;;;;;22.71;65.54;97550.26;571610;244;46587;-68
2022/04/29 09:36:56;;;;;;;;;;;;;;;22.71;64.90;97548.38;579841;244;46902;-69
2022/04/29 09:39:33;;;;;;;;;;;;;;;22.71;65.17;97548.38;578908;244;68648;-72
2022/04/29 09:42:02;;;;;;;;;;;;;;;22.71;65.48;97545.70;580137;244;63211;-69
2022/04/29 09:44:34;;;;;;;;;;;;;;;22.72;65.05;97541.94;580216;244;51139;-70
2022/04/29 09:47:12;;;;;;;;;;;;;;;22.72;64.94;97539.26;580251;244;66766;-71
2022/04/29 09:49:42;;;;;;;;;;;;;;;22.73;65.07;97538.20;580213;244;42567;-68
2022/04/29 09:52:13;;;;;;;;;;;;;;;22.74;65.37;97541.68;579774;244;48908;-68
2022/04/29 09:54:42;;;;;;;;;;;;;;;22.74;65.06;97539.00;580121;244;50147;-69
2022/04/29 09:57:13;;;;;;;;;;;;;;;22.74;65.94;97539.80;580173;244;65408;-68
2022/04/29 09:59:42;;;;;;;;;;;;;;;22.74;65.17;97542.48;580231;244;66480;-69
2022/04/29 10:02:11;;;;;;;;;;;;;;;22.75;65.33;97536.06;580199;244;68530;-69
2022/04/29 10:04:45;;;;;;;;;;;;;;;22.75;65.03;97530.70;580093;244;62641;-68
2022/04/29 10:07:17;;;;;;;;;;;;;;;22.76;65.05;97526.94;580224;244;50634;-68
2022/04/29 10:09:49;;;;;;;;;;;;;;;22.76;64.72;97526.94;580093;244;67010;-68
2022/04/29 10:12:18;;;;;;;;;;;;;;;22.77;65.41;97522.38;579402;244;65591;-68
2022/04/29 10:14:48;;;;;;;;;;;;;;;22.77;65.19;97517.81;579818;244;46028;-68
2022/04/29 10:23:08;;;;;;;;;;;;;;;22.79;65.65;97517.56;580224;244;66646;-68
2022/04/29 10:25:37;;;;;;;;;;;;;;;22.79;65.80;97514.88;579941;244;66307;-68
2022/04/29 10:28:08;;;;;;;;;;;;;;;22.80;65.73;97521.84;580219;244;63203;-69
2022/04/29 10:30:36;;;;;;;;;;;;;;;22.79;65.20;97529.08;580220;244;68295;-72
2022/04/29 10:33:13;;;;;;;;;;;;;;;22.81;64.67;97534.98;580048;244;68604;-70
2022/04/29 10:35:53;;;;;;;;;;;;;;;22.82;64.86;97520.49;580243;244;65613;-69
2022/04/29 10:38:25;;;;;;;;;;;;;;;22.84;65.69;97522.92;580140;244;69484;-70
2022/04/29 10:41:10;;;;;;;;;;;;;;;22.85;65.61;97524.52;580245;244;68937;-70
2022/04/29 10:43:39;;;;;;;;;;;;;;;22.87;65.35;97524.25;580240;244;65688;-68
2022/04/29 10:46:08;;;;;;;;;;;;;;;22.87;65.30;97517.02;579635;244;68708;-69
2022/04/29 10:48:38;;;;;;;;;;;;;;;22.88;65.19;97518.61;579935;244;46077;-68
2022/04/29 10:51:18;;;;;;;;;;;;;;;22.89;66.05;97525.59;575291;244;45287;-69
2022/04/29 10:53:57;;;;;;;;;;;;;;;22.90;66.36;97529.07;579129;244;49546;-70
2022/04/29 10:56:39;;;;;;;;;;;;;;;22.90;66.32;97521.83;579616;244;51576;-69
2022/04/29 10:59:11;;;;;;;;;;;;;;;22.90;66.78;97526.39;580163;244;65524;-70
2022/04/29 11:01:40;;;;;;;;;;;;;;;22.92;66.35;97525.05;580197;244;69716;-70
2022/04/29 11:04:08;;;;;;;;;;;;;;;22.92;65.77;97516.21;580177;244;66663;-68
2022/04/29 11:06:38;;;;;;;;;;;;;;;22.94;65.98;97519.41;580221;244;65373;-71
2022/04/29 11:09:23;;;;;;;;;;;;;;;22.94;66.25;97516.72;580080;244;68823;-69
2022/04/29 11:11:51;;;;;;;;;;;;;;;22.95;66.01;97515.66;580198;244;68620;-70
2022/04/29 11:14:55;;;;;;;;;;;;;;;22.95;66.31;97521.82;580244;244;39916;-68
2022/04/29 11:17:26;;;;;;;;;;;;;;;22.95;66.02;97519.14;577619;244;50844;-69
2022/04/29 11:19:57;;;;;;;;;;;;;;;22.97;66.17;97514.35;579951;244;47259;-70
2022/04/29 11:25:10;;;;;;;;;;;;;;;22.97;65.98;97511.67;580220;244;68814;-70
2022/04/29 11:27:42;;;;;;;;;;;;;;;22.98;66.36;97512.47;580269;244;52231;-69
2022/04/29 11:30:18;;;;;;;;;;;;;;;22.99;65.85;97512.18;580048;244;44105;-69
2022/04/29 11:32:47;;;;;;;;;;;;;;;22.99;66.28;97509.50;579876;244;50784;-70
2022/04/29 11:35:15;;;;;;;;;;;;;;;22.99;66.39;97517.54;580141;244;68508;-70
2022/04/29 11:37:42;;;;;;;;;;;;;;;23.00;66.21;97513.01;580182;244;65469;-69
2022/04/29 11:40:12;;;;;;;;;;;;;;;23.01;65.71;97507.36;580146;244;68593;-72
2022/04/29 11:42:41;;;;;;;;;;;;;;;23.02;66.12;97513.52;580267;244;66506;-69
2022/04/29 11:45:09;;;;;;;;;;;;;;;23.02;65.85;97508.95;579896;242;63148;-70
2022/04/29 11:47:37;;;;;;;;;;;;;;;23.04;66.09;97508.69;579949;244;68370;-70
2022/04/29 11:50:06;;;;;;;;;;;;;;;23.04;66.26;97503.33;579849;244;68539;-71
2022/04/29 11:52:36;;;;;;;;;;;;;;;23.04;66.09;97508.69;579913;244;63295;-71
2022/04/29 11:55:05;;;;;;;;;;;;;;;23.04;66.22;97506.02;579934;244;66876;-68
2022/04/29 11:57:34;;;;;;;;;;;;;;;23.05;65.79;97504.92;579889;244;66272;-66
2022/04/29 12:00:06;;;;;;;;;;;;;;;23.06;66.12;97498.51;578984;244;66405;-69
2022/04/29 12:02:35;;;;;;;;;;;;;;;23.05;65.86;97496.88;579749;244;48184;-69
2022/04/29 12:05:05;;;;;;;;;;;;;;;23.06;65.92;97493.15;579887;244;66253;-68
2022/04/29 12:07:40;;;;;;;;;;;;;;;23.08;65.53;97490.17;579932;244;65604;-69
2022/04/29 12:10:26;;;;;;;;;;;;;;;23.08;65.10;97488.33;579885;244;50698;-68
2022/04/29 12:13:01;;;;;;;;;;;;;;;23.08;65.83;97487.50;579875;244;66509;-69
2022/04/29 12:15:33;;;;;;;;;;;;;;;23.09;66.06;97486.44;579886;244;65780;-70
2022/04/29 12:18:01;;;;;;;;;;;;;;;23.08;66.53;97479.45;579595;244;68641;-68
2022/04/29 12:20:30;;;;;;;;;;;;;;;23.08;66.57;97485.64;579898;244;68739;-69
2022/04/29 12:23:01;;;;;;;;;;;;;;;23.08;66.50;97482.96;579930;244;65312;-68
2022/04/29 12:25:31;;;;;;;;;;;;;;;23.07;67.36;97473.30;579577;244;68712;-68
2022/04/29 12:36:32;;;;;;;;;;;;;;;23.09;66.54;97476.52;588815;241;68810;-70
2022/04/29 12:39:05;;;;;;;;;;;;;;;23.09;66.57;97471.15;588022;241;63034;-71
2022/04/29 12:41:34;;;;;;;;;;;;;;;23.09;67.00;97470.36;588716;241;68691;-70
2022/04/29 12:45:03;;;;;;;;;;;;;;;23.09;66.65;97465.79;588736;241;66856;-70
2022/04/29 12:46:41;;;;;;;;;;;;;;;23.09;66.88;97465.79;588761;241;63229;-69
2022/04/29 12:49:11;;;;;;;;;;;;;;;23.10;66.56;97470.06;588777;241;69218;-69
2022/04/29 12:51:38;;;;;;;;;;;;;;;23.10;67.07;97464.70;588129;241;66538;-71
2022/04/29 12:54:10;;;;;;;;;;;;;;;23.11;66.49;97469.01;588647;241;66425;-68
2022/04/29 12:56:37;;;;;;;;;;;;;;;23.11;66.43;97466.33;592101;239;68758;-69
2022/04/29 12:59:05;;;;;;;;;;;;;;;23.11;66.89;97463.65;593052;239;68550;-69
2022/04/29 13:01:37;;;;;;;;;;;;;;;23.12;66.00;97457.20;592990;239;65980;-69
2022/04/29 13:04:06;;;;;;;;;;;;;;;23.12;65.55;97459.88;592865;237;46030;-72
2022/04/29 13:06:36;;;;;;;;;;;;;;;23.13;65.45;97460.67;593026;237;49821;-71
2022/04/29 13:09:04;;;;;;;;;;;;;;;23.13;65.81;97461.47;592961;239;65642;-70
2022/04/29 13:11:32;;;;;;;;;;;;;;;23.15;65.11;97466.58;593044;239;69909;-70
2022/04/29 13:14:03;;;;;;;;;;;;;;;23.15;65.92;97467.37;593182;238;46856;-72
2022/04/29 13:16:35;;;;;;;;;;;;;;;23.14;66.29;97452.38;593109;239;65368;-71
2022/04/29 13:19:04;;;;;;;;;;;;;;;23.16;65.60;97460.95;593203;239;49770;-73
2022/04/29 13:21:32;;;;;;;;;;;;;;;23.17;65.75;97456.38;593163;239;68570;-73
2022/04/29 13:24:01;;;;;;;;;;;;;;;23.17;66.23;97454.50;593112;238;43929;-73
2022/04/29 13:26:38;;;;;;;;;;;;;;;23.17;66.00;97454.50;592817;239;51122;-72
2022/04/29 13:29:05;;;;;;;;;;;;;;;23.18;65.29;97444.57;591806;239;68535;-72
2022/04/29 13:31:33;;;;;;;;;;;;;;;23.18;65.38;97450.73;588637;241;62993;-73
2022/04/29 13:34:00;;;;;;;;;;;;;;;23.19;65.27;97446.99;588671;241;68482;-72
2022/04/29 13:36:28;;;;;;;;;;;;;;;23.19;64.50;97443.48;588668;241;68589;-74
2022/04/29 13:38:55;;;;;;;;;;;;;;;23.21;64.90;97447.50;588688;241;65207;-74
2022/04/29 13:41:26;;;;;;;;;;;;;;;23.20;65.22;97445.91;588668;241;46046;-74
2022/04/29 13:43:53;;;;;;;;;;;;;;;23.21;65.28;97447.50;588588;241;68397;-74